Time;durP1;ratioP1;P1;durP2;ratioP2;P2;SDS_P1;SDS_P2;PMS_P1;PMS_P2;Temp;Humidity;BMP_temperature;BMP_pressure;BME280_temperature;BME280_humidity;BME280_pressure;Samples;Min_cycle;Max_cycle;Signal;HPM_P1;HPM_P2
2021/11/15 00:00:21;;;;;;;8.18;4.40;;;10.00;91.20;;;;;;5045259;28;20456;-76
2021/11/15 00:02:49;;;;;;;5.50;2.83;;;10.00;91.30;;;;;;5049630;28;20044;-75
2021/11/15 00:05:16;;;;;;;5.65;3.03;;;10.00;91.50;;;;;;5045566;28;20446;-76
2021/11/15 00:07:43;;;;;;;8.10;4.15;;;10.00;91.30;;;;;;5050524;28;20040;-75
2021/11/15 00:10:16;;;;;;;7.13;4.00;;;9.90;91.20;;;;;;5048276;28;20124;-76
2021/11/15 00:12:46;;;;;;;6.55;3.60;;;9.90;91.20;;;;;;5046643;28;20136;-76
2021/11/15 00:15:14;;;;;;;7.35;3.72;;;10.00;91.30;;;;;;5018949;28;20132;-76
2021/11/15 00:17:41;;;;;;;8.25;4.90;;;9.90;91.20;;;;;;5031676;28;20099;-76
2021/11/15 00:20:09;;;;;;;9.35;4.25;;;9.90;91.20;;;;;;5053020;28;20041;-76
2021/11/15 00:22:36;;;;;;;8.10;3.90;;;9.90;91.20;;;;;;5044978;28;20052;-76
2021/11/15 00:25:05;;;;;;;8.30;4.43;;;9.90;91.20;;;;;;5046708;28;20040;-76
2021/11/15 00:27:33;;;;;;;7.82;4.18;;;9.90;91.20;;;;;;5040549;28;20049;-76
2021/11/15 00:30:00;;;;;;;6.82;3.88;;;9.90;91.20;;;;;;5047402;28;20167;-76
2021/11/15 00:32:28;;;;;;;7.80;4.15;;;9.90;91.20;;;;;;5027556;28;20095;-74
2021/11/15 00:34:56;;;;;;;6.65;3.67;;;9.90;91.20;;;;;;5026288;28;20045;-75
2021/11/15 00:37:23;;;;;;;6.30;3.30;;;9.90;91.50;;;;;;5029427;28;20051;-77
2021/11/15 00:39:50;;;;;;;6.00;2.92;;;9.90;91.20;;;;;;5046923;28;20124;-76
2021/11/15 00:42:17;;;;;;;8.10;4.38;;;9.90;91.20;;;;;;5036424;28;20037;-76
2021/11/15 00:44:44;;;;;;;7.75;3.78;;;9.90;91.30;;;;;;5042466;28;20057;-76
2021/11/15 00:47:12;;;;;;;6.47;2.97;;;9.80;91.20;;;;;;5040263;28;20417;-76
2021/11/15 00:49:39;;;;;;;6.78;3.05;;;9.80;91.20;;;;;;5042327;28;20033;-76
2021/11/15 00:52:06;;;;;;;8.43;3.78;;;9.80;91.20;;;;;;5029363;28;20408;-76
2021/11/15 00:54:34;;;;;;;8.18;4.30;;;9.80;91.20;;;;;;5046030;28;20400;-76
2021/11/15 00:57:03;;;;;;;8.10;4.25;;;9.80;91.20;;;;;;5042560;28;20049;-76
2021/11/15 00:59:32;;;;;;;8.27;4.70;;;9.80;91.20;;;;;;5026368;28;20076;-76
2021/11/15 01:02:02;;;;;;;8.50;4.82;;;9.70;91.20;;;;;;5046556;28;20071;-76
2021/11/15 01:04:29;;;;;;;8.93;5.18;;;9.80;91.20;;;;;;5046008;28;20489;-77
2021/11/15 01:06:57;;;;;;;8.15;4.53;;;9.70;91.20;;;;;;5047428;28;20045;-76
2021/11/15 01:09:24;;;;;;;8.43;4.82;;;9.70;91.20;;;;;;5049609;28;20033;-76
2021/11/15 01:11:53;;;;;;;9.10;5.25;;;9.70;91.20;;;;;;5047139;28;20056;-76
2021/11/15 01:14:22;;;;;;;8.32;4.45;;;9.70;91.20;;;;;;5041244;28;20095;-76
2021/11/15 01:16:49;;;;;;;8.82;4.53;;;9.70;91.20;;;;;;5055737;28;20041;-76
2021/11/15 01:19:18;;;;;;;6.55;3.42;;;9.60;91.40;;;;;;5034930;28;20049;-76
2021/11/15 01:21:46;;;;;;;6.07;3.40;;;9.70;91.20;;;;;;5049720;28;20041;-76
2021/11/15 01:24:14;;;;;;;6.63;3.58;;;9.70;91.50;;;;;;5046963;28;20045;-76
2021/11/15 01:26:41;;;;;;;7.45;3.65;;;9.70;91.20;;;;;;5049080;28;20387;-76
2021/11/15 01:29:10;;;;;;;6.32;3.13;;;9.70;91.20;;;;;;5049831;28;20057;-76
2021/11/15 01:31:38;;;;;;;8.05;4.40;;;9.70;91.20;;;;;;5051431;28;20131;-76
2021/11/15 01:34:06;;;;;;;7.22;4.10;;;9.70;91.20;;;;;;5051075;28;20159;-76
2021/11/15 01:36:34;;;;;;;8.90;4.68;;;9.70;91.20;;;;;;5035409;28;20044;-76
2021/11/15 01:39:03;;;;;;;8.02;4.20;;;9.60;91.10;;;;;;5051085;28;20053;-76
2021/11/15 01:41:30;;;;;;;9.35;4.97;;;9.60;91.10;;;;;;5049677;28;20041;-76
2021/11/15 01:43:58;;;;;;;7.55;4.05;;;9.60;91.20;;;;;;5045163;28;20068;-76
2021/11/15 01:46:25;;;;;;;6.88;3.55;;;9.60;91.20;;;;;;5051709;28;20055;-76
2021/11/15 01:48:52;;;;;;;8.00;3.78;;;9.60;91.20;;;;;;5031751;28;20866;-76
2021/11/15 01:51:19;;;;;;;7.07;3.42;;;9.60;91.20;;;;;;5045554;28;20068;-77
2021/11/15 01:53:47;;;;;;;7.78;3.70;;;9.60;91.20;;;;;;5035876;28;20044;-76
2021/11/15 01:56:14;;;;;;;7.07;3.97;;;9.60;91.20;;;;;;5052750;28;20033;-76
2021/11/15 01:58:41;;;;;;;6.43;3.10;;;9.60;91.20;;;;;;5014224;28;20065;-76
2021/11/15 02:01:08;;;;;;;6.07;3.03;;;9.70;91.20;;;;;;5051383;28;20065;-76
2021/11/15 02:03:35;;;;;;;5.90;3.30;;;9.60;91.20;;;;;;5048084;28;20084;-76
2021/11/15 02:06:04;;;;;;;7.43;3.95;;;9.60;91.10;;;;;;5032103;28;20044;-76
2021/11/15 02:08:32;;;;;;;7.70;4.15;;;9.60;91.20;;;;;;5049432;28;20110;-77
2021/11/15 02:10:59;;;;;;;8.20;4.40;;;9.60;91.20;;;;;;5048385;28;20045;-83
2021/11/15 02:13:26;;;;;;;8.38;3.97;;;9.60;91.20;;;;;;5013198;28;20053;-76
2021/11/15 02:15:53;;;;;;;7.68;4.05;;;9.60;91.20;;;;;;5049910;28;20037;-76
2021/11/15 02:18:21;;;;;;;9.48;4.07;;;9.60;91.20;;;;;;5032409;28;20060;-76
2021/11/15 02:20:51;;;;;;;10.43;5.63;;;9.60;91.20;;;;;;5053539;28;20045;-76
2021/11/15 02:23:19;;;;;;;9.27;4.57;;;9.60;91.20;;;;;;5051753;28;20068;-76
2021/11/15 02:25:48;;;;;;;13.38;7.13;;;9.50;91.10;;;;;;5048980;28;20489;-76
2021/11/15 02:28:18;;;;;;;10.98;5.70;;;9.50;91.10;;;;;;5049361;28;20395;-76
2021/11/15 02:30:45;;;;;;;10.35;6.35;;;9.50;91.20;;;;;;5052865;28;20091;-75
2021/11/15 02:33:12;;;;;;;10.25;5.80;;;9.40;91.20;;;;;;5033376;28;20048;-73
2021/11/15 02:35:39;;;;;;;8.43;5.40;;;9.40;91.50;;;;;;5032939;28;20106;-73
2021/11/15 02:38:07;;;;;;;8.70;4.85;;;9.50;91.20;;;;;;5032630;28;20151;-74
2021/11/15 02:40:34;;;;;;;8.77;4.78;;;9.40;91.20;;;;;;5048606;28;20083;-73
2021/11/15 02:43:02;;;;;;;7.25;4.03;;;9.50;91.20;;;;;;5047472;28;20076;-73
2021/11/15 02:45:30;;;;;;;7.80;4.53;;;9.50;91.20;;;;;;5041945;28;20049;-73
2021/11/15 02:47:57;;;;;;;8.93;4.47;;;9.50;91.30;;;;;;5042757;28;20045;-76
2021/11/15 02:50:28;;;;;;;8.45;4.82;;;9.50;91.20;;;;;;5044218;28;20065;-76
2021/11/15 02:52:58;;;;;;;12.65;6.13;;;9.50;91.20;;;;;;5047966;28;20060;-76
2021/11/15 02:55:28;;;;;;;8.15;4.13;;;9.50;91.20;;;;;;5031177;28;20087;-77
2021/11/15 02:57:57;;;;;;;10.55;4.90;;;9.40;91.20;;;;;;5047768;28;20448;-76
2021/11/15 03:00:33;;;;;;;10.10;6.03;;;9.40;91.20;;;;;;5011346;28;20084;-76
2021/11/15 03:03:00;;;;;;;10.32;6.28;;;9.40;91.20;;;;;;5046561;28;20075;-77
2021/11/15 03:05:32;;;;;;;13.18;6.70;;;9.40;91.20;;;;;;5048530;28;20033;-77
2021/11/15 03:08:00;;;;;;;10.00;4.90;;;9.40;91.20;;;;;;5046140;28;20036;-76
2021/11/15 03:10:28;;;;;;;12.65;6.90;;;9.40;91.20;;;;;;5048370;28;20033;-76
2021/11/15 03:12:56;;;;;;;11.35;6.15;;;9.40;91.20;;;;;;5047065;28;20040;-77
2021/11/15 03:15:33;;;;;;;9.68;5.25;;;9.40;91.20;;;;;;5047933;28;20095;-76
2021/11/15 03:18:05;;;;;;;10.65;5.80;;;9.40;91.20;;;;;;5046810;28;20681;-76
2021/11/15 03:20:35;;;;;;;;;;;9.30;91.20;;;;;;5047707;28;20753;-76
2021/11/15 03:23:09;;;;;;;10.38;6.20;;;9.30;91.20;;;;;;5050178;28;19971;-76
2021/11/15 03:25:36;;;;;;;10.95;5.65;;;9.30;91.20;;;;;;5050877;28;20385;-76
2021/11/15 03:28:05;;;;;;;9.82;5.07;;;9.30;91.30;;;;;;5044977;28;20779;-76
2021/11/15 03:30:32;;;;;;;12.18;6.28;;;9.30;91.30;;;;;;5046518;28;20041;-76
2021/11/15 03:32:59;;;;;;;12.02;6.53;;;9.30;91.20;;;;;;5049096;28;20037;-76
2021/11/15 03:35:27;;;;;;;12.65;6.00;;;9.20;91.20;;;;;;5046722;28;20051;-76
2021/11/15 03:37:54;;;;;;;12.25;7.18;;;9.20;91.20;;;;;;5045943;28;20131;-76
2021/11/15 03:40:24;;;;;;;11.82;6.35;;;9.30;91.20;;;;;;5030968;28;20045;-76
2021/11/15 03:42:58;;;;;;;11.63;6.43;;;9.30;91.20;;;;;;5031345;28;20118;-76
2021/11/15 03:45:29;;;;;;;14.68;7.93;;;9.20;91.20;;;;;;5047715;28;20748;-76
2021/11/15 03:47:57;;;;;;;11.05;5.80;;;9.30;91.20;;;;;;5047335;28;20049;-76
2021/11/15 03:50:25;;;;;;;12.13;6.85;;;9.30;91.30;;;;;;5049009;28;20115;-76
2021/11/15 03:52:58;;;;;;;12.07;7.65;;;9.30;91.20;;;;;;5049731;28;20110;-76
2021/11/15 03:55:25;;;;;;;11.73;6.05;;;9.20;91.20;;;;;;5050333;28;20037;-76
2021/11/15 03:57:53;;;;;;;11.32;5.72;;;9.20;91.20;;;;;;5014552;28;20358;-76
2021/11/15 04:00:23;;;;;;;13.60;7.15;;;9.20;91.20;;;;;;5033812;28;20132;-76
2021/11/15 04:02:54;;;;;;;12.07;6.22;;;9.20;91.20;;;;;;5051109;28;20044;-76
2021/11/15 04:05:30;;;;;;;11.10;6.07;;;9.30;91.20;;;;;;5055443;28;20040;-76
2021/11/15 04:07:58;;;;;;;11.38;6.22;;;9.30;91.30;;;;;;5053621;28;20099;-76
2021/11/15 04:10:30;;;;;;;13.63;6.78;;;9.20;91.20;;;;;;5050590;28;20112;-76
2021/11/15 04:12:59;;;;;;;11.75;5.57;;;9.20;91.20;;;;;;5048560;28;20071;-76
2021/11/15 04:15:26;;;;;;;14.38;7.07;;;9.20;91.20;;;;;;5054426;28;20037;-76
2021/11/15 04:17:53;;;;;;;11.65;6.40;;;9.20;91.20;;;;;;5035819;28;20159;-76
2021/11/15 04:20:22;;;;;;;12.93;6.28;;;9.20;91.20;;;;;;5035410;28;20053;-76
2021/11/15 04:22:49;;;;;;;10.57;5.68;;;9.20;91.50;;;;;;5048434;28;20047;-76
2021/11/15 04:25:16;;;;;;;10.18;5.53;;;9.20;91.20;;;;;;5030405;28;20068;-76
2021/11/15 04:27:44;;;;;;;9.15;4.60;;;9.30;91.30;;;;;;5049238;28;20460;-76
2021/11/15 04:30:12;;;;;;;8.68;4.30;;;9.30;91.30;;;;;;5031727;28;20053;-76
2021/11/15 04:32:44;;;;;;;9.95;5.22;;;9.30;91.20;;;;;;5030572;28;20103;-76
2021/11/15 04:35:13;;;;;;;12.10;6.43;;;9.30;91.20;;;;;;5028685;28;20461;-76
2021/11/15 04:37:41;;;;;;;13.50;7.15;;;9.30;91.20;;;;;;5047817;28;20049;-76
2021/11/15 04:40:09;;;;;;;14.18;6.80;;;9.30;91.20;;;;;;5048515;28;20076;-77
2021/11/15 04:42:37;;;;;;;12.82;6.35;;;9.20;91.10;;;;;;5049687;28;20162;-76
2021/11/15 04:45:05;;;;;;;12.75;6.70;;;9.20;91.20;;;;;;5047107;28;20478;-76
2021/11/15 04:47:32;;;;;;;12.07;5.50;;;9.20;91.20;;;;;;5046796;28;20979;-76
2021/11/15 04:49:59;;;;;;;11.10;6.13;;;9.30;91.20;;;;;;5047123;28;20120;-76
2021/11/15 04:52:27;;;;;;;8.60;4.90;;;9.30;91.20;;;;;;5030340;28;20040;-76
2021/11/15 04:54:54;;;;;;;9.30;4.63;;;9.30;91.20;;;;;;5019545;28;20161;-76
2021/11/15 04:57:22;;;;;;;9.93;4.97;;;9.30;91.20;;;;;;5031200;28;20041;-76
2021/11/15 04:59:49;;;;;;;12.43;6.10;;;9.30;91.20;;;;;;5049777;28;20874;-76
2021/11/15 05:02:16;;;;;;;10.52;5.05;;;9.30;91.20;;;;;;5049323;28;20128;-76
2021/11/15 05:04:44;;;;;;;10.68;5.88;;;9.30;91.20;;;;;;5019474;28;20056;-76
2021/11/15 05:07:11;;;;;;;12.02;6.32;;;9.20;91.10;;;;;;5035179;28;20069;-76
2021/11/15 05:09:39;;;;;;;10.48;5.90;;;9.20;91.10;;;;;;5051751;28;20839;-76
2021/11/15 05:12:10;;;;;;;10.93;5.78;;;9.20;91.20;;;;;;5049561;28;20040;-77
2021/11/15 05:14:37;;;;;;;9.38;4.07;;;9.20;91.20;;;;;;5050580;28;20044;-76
2021/11/15 05:17:05;;;;;;;10.95;5.53;;;9.20;91.20;;;;;;5023544;28;20041;-76
2021/11/15 05:19:32;;;;;;;10.23;5.38;;;9.20;91.20;;;;;;5051138;28;20094;-76
2021/11/15 05:21:59;;;;;;;11.07;5.38;;;9.20;91.20;;;;;;5050543;28;20103;-76
2021/11/15 05:24:26;;;;;;;11.45;6.50;;;9.20;91.20;;;;;;5034004;28;20051;-76
2021/11/15 05:26:53;;;;;;;10.95;6.25;;;9.20;91.20;;;;;;5050243;28;20045;-76
2021/11/15 05:29:20;;;;;;;9.82;5.72;;;9.20;91.20;;;;;;5050076;28;20048;-77
2021/11/15 05:31:47;;;;;;;13.10;6.25;;;9.20;91.20;;;;;;5049905;28;20075;-76
2021/11/15 05:34:14;;;;;;;10.20;5.45;;;9.10;91.10;;;;;;5050280;28;20041;-77
2021/11/15 05:36:41;;;;;;;10.25;4.88;;;9.20;91.20;;;;;;5052472;28;20056;-76
2021/11/15 05:39:08;;;;;;;12.88;5.72;;;9.20;91.20;;;;;;5027501;28;20045;-77
2021/11/15 05:41:35;;;;;;;10.98;6.53;;;9.10;91.20;;;;;;5051139;28;20098;-77
2021/11/15 05:44:02;;;;;;;10.27;5.30;;;9.20;91.20;;;;;;5032705;28;20045;-76
2021/11/15 05:46:32;;;;;;;9.23;5.28;;;9.20;91.20;;;;;;5034911;28;20490;-77
2021/11/15 05:48:59;;;;;;;10.10;5.30;;;9.20;91.20;;;;;;5050282;28;20374;-76
2021/11/15 05:51:26;;;;;;;8.80;4.70;;;9.20;91.20;;;;;;5020197;28;20575;-76
2021/11/15 05:53:53;;;;;;;7.93;4.10;;;9.20;91.20;;;;;;5047458;28;20068;-77
2021/11/15 05:56:20;;;;;;;8.23;4.32;;;9.20;91.20;;;;;;5032445;28;20048;-76
2021/11/15 05:58:47;;;;;;;8.43;4.35;;;9.20;91.20;;;;;;5030724;28;20120;-76
2021/11/15 06:01:14;;;;;;;9.80;5.25;;;9.20;91.20;;;;;;5045918;28;20497;-76
2021/11/15 06:03:44;;;;;;;10.73;6.13;;;9.20;91.20;;;;;;5050005;28;20144;-76
2021/11/15 06:06:11;;;;;;;11.70;6.30;;;9.10;91.20;;;;;;5032144;28;20037;-77
2021/11/15 06:08:38;;;;;;;10.18;5.88;;;9.10;91.20;;;;;;5047671;28;20148;-76
2021/11/15 06:11:04;;;;;;;12.25;5.63;;;9.10;91.20;;;;;;5046389;28;20157;-76
2021/11/15 06:13:32;;;;;;;11.40;5.82;;;9.10;91.20;;;;;;5037010;28;20076;-77
2021/11/15 06:15:59;;;;;;;10.20;5.00;;;9.10;91.20;;;;;;5034187;28;20572;-76
2021/11/15 06:18:26;;;;;;;7.68;4.57;;;9.00;91.20;;;;;;5048268;28;20067;-76
2021/11/15 06:20:53;;;;;;;8.50;3.88;;;9.00;91.20;;;;;;5049169;28;20036;-76
2021/11/15 06:23:20;;;;;;;7.07;4.00;;;9.00;91.20;;;;;;5048755;28;20041;-76
2021/11/15 06:25:47;;;;;;;9.02;4.60;;;9.10;91.30;;;;;;5032751;28;20049;-77
2021/11/15 06:28:15;;;;;;;8.18;3.97;;;9.10;91.30;;;;;;5031358;28;20033;-76
2021/11/15 06:30:42;;;;;;;7.57;4.35;;;9.10;91.30;;;;;;5028489;28;20120;-76
2021/11/15 06:33:10;;;;;;;7.25;3.95;;;9.10;91.30;;;;;;5014125;28;20038;-77
2021/11/15 06:35:38;;;;;;;7.03;3.58;;;9.10;91.30;;;;;;5049109;28;20045;-77
2021/11/15 06:38:05;;;;;;;6.90;3.28;;;9.10;91.30;;;;;;5021817;28;20048;-76
2021/11/15 06:40:32;;;;;;;6.13;2.97;;;9.10;91.30;;;;;;5014051;28;20136;-76
2021/11/15 06:42:59;;;;;;;7.30;3.75;;;9.10;91.30;;;;;;5047359;28;20569;-76
2021/11/15 06:45:26;;;;;;;8.85;4.28;;;9.10;91.30;;;;;;5047155;28;20040;-77
2021/11/15 06:47:54;;;;;;;9.07;5.10;;;9.10;91.30;;;;;;5038268;28;20037;-77
2021/11/15 06:50:22;;;;;;;7.82;3.90;;;9.10;91.20;;;;;;5042985;28;20382;-77
2021/11/15 06:52:50;;;;;;;8.48;4.80;;;9.10;91.30;;;;;;5050083;28;20053;-77
2021/11/15 06:55:21;;;;;;;6.55;3.47;;;9.00;91.30;;;;;;5033048;28;20064;-77
2021/11/15 06:57:49;;;;;;;7.93;4.30;;;9.10;91.30;;;;;;5037276;28;20198;-77
2021/11/15 07:00:22;;;;;;;8.48;4.35;;;9.10;91.30;;;;;;5036389;28;20404;-77
2021/11/15 07:02:53;;;;;;;9.63;4.45;;;9.10;91.30;;;;;;5052704;28;20044;-77
2021/11/15 07:05:24;;;;;;;8.60;4.13;;;9.00;91.30;;;;;;5050986;28;20036;-76
2021/11/15 07:07:52;;;;;;;9.02;4.30;;;9.00;91.30;;;;;;5046241;28;20134;-76
2021/11/15 07:10:21;;;;;;;9.07;4.90;;;9.00;91.30;;;;;;5045940;28;20153;-77
2021/11/15 07:12:49;;;;;;;10.75;4.82;;;9.00;91.30;;;;;;5048846;28;20033;-76
2021/11/15 07:15:18;;;;;;;7.95;3.95;;;9.00;91.40;;;;;;5065490;28;20040;-78
2021/11/15 07:17:46;;;;;;;9.32;4.07;;;9.00;91.40;;;;;;5055558;28;20100;-77
2021/11/15 07:20:13;;;;;;;9.20;3.30;;;9.00;91.30;;;;;;5058888;28;20037;-77
2021/11/15 07:22:40;;;;;;;10.63;4.35;;;9.00;91.30;;;;;;5075745;28;20052;-76
2021/11/15 07:25:08;;;;;;;9.13;4.35;;;9.00;91.40;;;;;;5059737;28;20041;-78
2021/11/15 07:27:35;;;;;;;8.63;4.47;;;8.90;91.30;;;;;;5064931;28;20063;-78
2021/11/15 07:30:05;;;;;;;7.78;3.70;;;8.90;91.40;;;;;;5030649;28;20120;-77
2021/11/15 07:32:32;;;;;;;8.07;3.75;;;8.90;91.40;;;;;;5048731;28;20054;-81
2021/11/15 07:35:00;;;;;;;7.22;3.42;;;8.90;91.40;;;;;;5045536;28;20053;-78
2021/11/15 07:37:27;;;;;;;7.85;4.32;;;8.90;91.40;;;;;;5031288;28;20045;-79
2021/11/15 07:39:54;;;;;;;6.85;3.92;;;8.90;91.70;;;;;;5012802;28;20155;-77
2021/11/15 07:42:21;;;;;;;8.30;4.05;;;8.90;91.40;;;;;;5025697;28;20047;-77
2021/11/15 07:44:49;;;;;;;9.20;4.80;;;8.80;91.40;;;;;;5047473;28;20041;-77
2021/11/15 07:47:16;;;;;;;8.90;4.78;;;8.80;91.40;;;;;;5043758;28;20044;-77
2021/11/15 07:49:44;;;;;;;9.60;4.35;;;8.80;91.40;;;;;;5030255;28;20037;-77
2021/11/15 07:52:13;;;;;;;9.23;4.38;;;8.70;91.40;;;;;;5017950;28;20060;-78
2021/11/15 07:54:40;;;;;;;8.70;4.43;;;8.80;91.50;;;;;;5045030;28;20033;-77
2021/11/15 07:57:08;;;;;;;8.10;3.47;;;8.80;91.50;;;;;;5030697;28;20037;-78
2021/11/15 07:59:37;;;;;;;6.82;3.13;;;8.80;91.50;;;;;;5045631;28;20044;-77
2021/11/15 08:02:05;;;;;;;8.63;3.97;;;8.80;91.50;;;;;;5046335;28;20055;-78
2021/11/15 08:04:33;;;;;;;8.25;3.45;;;8.80;91.50;;;;;;5041611;28;20072;-78
2021/11/15 08:07:00;;;;;;;8.60;4.20;;;8.80;91.40;;;;;;5046308;28;20448;-77
2021/11/15 08:09:27;;;;;;;7.05;3.78;;;8.80;91.40;;;;;;5050160;28;20037;-78
2021/11/15 08:12:02;;;;;;;8.13;3.63;;;8.70;91.40;;;;;;5032449;28;20377;-77
2021/11/15 08:14:30;;;;;;;7.47;3.90;;;8.80;91.40;;;;;;5045746;28;20110;-78
2021/11/15 08:16:57;;;;;;;5.97;2.55;;;8.70;91.40;;;;;;5029405;28;20508;-78
2021/11/15 08:19:24;;;;;;;5.85;3.38;;;8.70;91.40;;;;;;4998771;28;20045;-78
2021/11/15 08:21:51;;;;;;;9.15;3.80;;;8.70;91.40;;;;;;5042466;28;20057;-77
2021/11/15 08:24:18;;;;;;;7.07;3.30;;;8.70;91.30;;;;;;5046086;28;20756;-78
2021/11/15 08:27:00;;;;;;;6.80;3.35;;;8.70;91.40;;;;;;5032523;28;20079;-78
2021/11/15 08:29:33;;;;;;;6.25;2.85;;;8.70;91.30;;;;;;5043348;28;20049;-77
2021/11/15 08:32:08;;;;;;;5.35;2.67;;;8.70;91.40;;;;;;5043178;28;20148;-78
2021/11/15 08:34:36;;;;;;;6.70;3.15;;;8.70;91.40;;;;;;5043230;28;20040;-78
2021/11/15 08:37:05;;;;;;;6.00;2.65;;;8.70;91.40;;;;;;5048950;28;20068;-78
2021/11/15 08:39:33;;;;;;;5.28;2.53;;;8.70;91.40;;;;;;5046326;28;20091;-78
2021/11/15 08:42:04;;;;;;;7.65;3.75;;;8.70;91.40;;;;;;5033090;28;20144;-78
2021/11/15 08:44:33;;;;;;;6.10;2.72;;;8.70;91.30;;;;;;5033724;28;20118;-78
2021/11/15 08:47:00;;;;;;;7.72;3.40;;;8.70;91.30;;;;;;5034210;28;20041;-77
2021/11/15 08:49:30;;;;;;;6.55;3.30;;;8.70;91.40;;;;;;5049211;28;20496;-79
2021/11/15 08:51:57;;;;;;;5.65;2.65;;;8.70;91.30;;;;;;5041782;28;20469;-78
2021/11/15 08:54:24;;;;;;;8.02;3.38;;;8.70;91.30;;;;;;5022782;28;20510;-78
2021/11/15 08:56:56;;;;;;;7.78;3.92;;;8.70;91.30;;;;;;5031062;28;20080;-78
2021/11/15 08:59:40;;;;;;;6.25;3.28;;;8.70;91.30;;;;;;5046583;28;20041;-78
2021/11/15 09:02:07;;;;;;;7.35;3.60;;;8.70;91.30;;;;;;5026649;28;20393;-77
2021/11/15 09:04:37;;;;;;;6.95;3.05;;;8.70;91.40;;;;;;5014430;28;20626;-77
2021/11/15 09:07:04;;;;;;;6.63;3.08;;;8.70;91.40;;;;;;5043162;28;20068;-78
2021/11/15 09:09:32;;;;;;;8.52;3.95;;;8.70;91.40;;;;;;5046984;28;20077;-78
2021/11/15 09:12:02;;;;;;;8.50;3.63;;;8.70;91.40;;;;;;5050115;28;20055;-78
2021/11/15 09:14:30;;;;;;;8.40;4.25;;;8.70;91.40;;;;;;5045540;28;20119;-78
2021/11/15 09:16:57;;;;;;;8.45;3.70;;;8.70;91.40;;;;;;5044841;28;20127;-78
2021/11/15 09:19:27;;;;;;;7.65;3.28;;;8.60;91.30;;;;;;5044165;28;20037;-78
2021/11/15 09:21:55;;;;;;;6.90;3.90;;;8.70;91.40;;;;;;5044164;28;20049;-78
2021/11/15 09:24:23;;;;;;;11.25;5.00;;;8.60;91.40;;;;;;5048335;28;20048;-80
2021/11/15 09:26:50;;;;;;;10.45;5.30;;;8.60;91.40;;;;;;5048211;28;20136;-80
2021/11/15 09:29:18;;;;;;;11.55;5.45;;;8.60;91.70;;;;;;5051836;28;20071;-79
2021/11/15 09:31:58;;;;;;;10.27;4.32;;;8.50;91.40;;;;;;5018090;28;20045;-78
2021/11/15 09:34:28;;;;;;;10.68;5.18;;;8.50;91.40;;;;;;5029673;28;20041;-78
2021/11/15 09:36:58;;;;;;;9.13;4.32;;;8.50;91.50;;;;;;5037434;28;20040;-79
2021/11/15 09:39:25;;;;;;;8.68;4.03;;;8.40;91.50;;;;;;5036175;28;20049;-78
2021/11/15 09:41:52;;;;;;;7.63;3.45;;;8.40;91.50;;;;;;5050500;28;20454;-79
2021/11/15 09:44:20;;;;;;;7.35;3.20;;;8.40;91.50;;;;;;5030903;28;20049;-79
2021/11/15 09:46:48;;;;;;;9.82;4.43;;;8.40;91.50;;;;;;5016834;28;20060;-78
2021/11/15 09:49:16;;;;;;;8.43;3.78;;;8.50;91.50;;;;;;5019254;28;20044;-79
2021/11/15 09:51:47;;;;;;;7.95;3.67;;;8.50;91.80;;;;;;5015617;28;20167;-79
2021/11/15 09:54:16;;;;;;;8.73;3.97;;;8.50;91.50;;;;;;5047670;28;20040;-79
2021/11/15 09:56:44;;;;;;;10.55;3.95;;;8.50;91.50;;;;;;5027018;28;20041;-75
2021/11/15 09:59:11;;;;;;;8.18;3.17;;;8.50;91.50;;;;;;5037112;28;20091;-76
2021/11/15 10:01:45;;;;;;;7.72;3.00;;;8.40;91.50;;;;;;5042425;28;20804;-76
2021/11/15 10:04:16;;;;;;;6.28;2.92;;;8.40;91.50;;;;;;5050524;28;20045;-78
2021/11/15 10:06:45;;;;;;;6.68;2.80;;;8.40;91.50;;;;;;5031381;28;20119;-79
2021/11/15 10:09:13;;;;;;;6.55;2.42;;;8.40;91.60;;;;;;5033875;28;20464;-79
2021/11/15 10:11:44;;;;;;;7.47;3.25;;;8.40;91.60;;;;;;5023619;28;20467;-79
2021/11/15 10:14:12;;;;;;;6.43;2.75;;;8.40;91.60;;;;;;5053575;28;20488;-80
2021/11/15 10:16:39;;;;;;;6.50;2.70;;;8.40;91.60;;;;;;5039647;28;20060;-80
2021/11/15 10:19:09;;;;;;;6.00;2.63;;;8.40;91.60;;;;;;5037477;28;20040;-79
2021/11/15 10:21:58;;;;;;;5.68;2.10;;;8.40;91.50;;;;;;5066526;28;20048;-79
2021/11/15 10:24:33;;;;;;;6.38;2.95;;;8.40;91.50;;;;;;5050308;28;20044;-79
2021/11/15 10:27:10;;;;;;;6.47;2.97;;;8.40;91.60;;;;;;5053731;28;20037;-79
2021/11/15 10:29:43;;;;;;;7.13;2.70;;;8.40;91.50;;;;;;5051619;28;20060;-78
2021/11/15 10:32:16;;;;;;;7.57;2.78;;;8.40;91.50;;;;;;5046274;28;20119;-79
2021/11/15 10:34:45;;;;;;;6.40;2.42;;;8.40;91.50;;;;;;5047026;28;20037;-79
2021/11/15 10:37:15;;;;;;;5.68;2.67;;;8.30;91.50;;;;;;5046633;28;20045;-79
2021/11/15 10:40:09;;;;;;;8.38;3.40;;;8.30;91.50;;;;;;5050017;28;20044;-79
2021/11/15 10:42:49;;;;;;;8.75;3.95;;;8.30;91.50;;;;;;5030892;28;20057;-79
2021/11/15 10:45:18;;;;;;;9.00;3.40;;;8.20;91.60;;;;;;5030712;28;20097;-79
2021/11/15 10:47:52;;;;;;;7.68;3.60;;;8.20;91.60;;;;;;5043091;28;20045;-79
2021/11/15 10:50:32;;;;;;;6.93;3.58;;;8.20;91.60;;;;;;5037067;28;20053;-79
2021/11/15 10:53:16;;;;;;;7.90;4.10;;;8.10;91.60;;;;;;5027059;28;20045;-80
2021/11/15 10:55:48;;;;;;;6.93;2.70;;;8.10;91.60;;;;;;5044960;28;20056;-80
2021/11/15 10:58:21;;;;;;;7.05;3.17;;;8.10;91.60;;;;;;5048479;28;20056;-80
2021/11/15 11:00:55;;;;;;;;;;;8.10;91.60;;;;;;5041647;28;20110;-79
2021/11/15 11:03:27;;;;;;;7.13;3.08;;;8.10;91.70;;;;;;5042430;28;20099;-80
2021/11/15 11:05:57;;;;;;;8.23;3.40;;;8.00;91.70;;;;;;5046528;28;20047;-79
2021/11/15 11:08:26;;;;;;;7.85;3.22;;;8.00;91.70;;;;;;5047436;28;20041;-77
2021/11/15 11:11:26;;;;;;;8.13;2.95;;;8.10;91.70;;;;;;5045588;28;20048;-75
2021/11/15 11:14:00;;;;;;;6.40;3.13;;;8.10;91.70;;;;;;5031188;28;20098;-76
2021/11/15 11:16:50;;;;;;;8.38;3.78;;;8.10;91.70;;;;;;5049705;28;20102;-76
2021/11/15 11:19:31;;;;;;;8.57;4.43;;;8.10;91.60;;;;;;5045263;28;20474;-76
2021/11/15 11:22:27;;;;;;;8.02;4.03;;;8.10;91.60;;;;;;5047329;28;20361;-78
2021/11/15 11:27:33;;;;;;;7.03;3.55;;;8.00;91.70;;;;;;5034863;28;20049;-75
2021/11/15 11:30:02;;;;;;;8.07;3.47;;;8.00;91.70;;;;;;5014070;28;20482;-75
2021/11/15 11:32:29;;;;;;;8.75;4.15;;;8.00;91.70;;;;;;5030884;28;20146;-75
2021/11/15 11:34:59;;;;;;;9.00;4.10;;;8.00;91.70;;;;;;5048355;28;20037;-75
2021/11/15 11:37:29;;;;;;;7.45;3.35;;;8.00;91.70;;;;;;5029854;28;20094;-82
2021/11/15 11:39:59;;;;;;;8.63;3.60;;;8.10;91.70;;;;;;5014895;28;20045;-81
2021/11/15 11:42:27;;;;;;;8.07;3.75;;;8.10;91.70;;;;;;5044168;28;20098;-86
2021/11/15 11:44:56;;;;;;;8.85;3.75;;;8.10;91.70;;;;;;5026573;28;20050;-80
2021/11/15 11:47:27;;;;;;;9.55;4.25;;;8.10;91.70;;;;;;5032120;28;20075;-78
2021/11/15 11:49:58;;;;;;;8.00;4.00;;;8.10;91.60;;;;;;5047484;28;20037;-79
2021/11/15 11:52:42;;;;;;;8.40;3.55;;;8.10;91.60;;;;;;5030694;28;20084;-78
2021/11/15 11:55:20;;;;;;;5.78;2.50;;;8.10;91.70;;;;;;5030520;28;20533;-79
2021/11/15 11:57:48;;;;;;;7.57;3.60;;;8.10;91.60;;;;;;5023848;28;20038;-79
2021/11/15 12:00:16;;;;;;;8.60;3.60;;;8.10;91.60;;;;;;5042774;28;20052;-78
2021/11/15 12:02:45;;;;;;;7.57;3.45;;;8.10;91.60;;;;;;5028303;28;20447;-78
2021/11/15 12:05:14;;;;;;;6.32;2.60;;;8.10;91.60;;;;;;5030302;28;20485;-78
2021/11/15 12:07:51;;;;;;;10.00;4.20;;;8.10;91.60;;;;;;5047462;28;20052;-78
2021/11/15 12:10:40;;;;;;;7.68;3.63;;;8.10;91.60;;;;;;5044443;28;20112;-79
2021/11/15 12:13:15;;;;;;;5.75;2.90;;;8.10;91.60;;;;;;5049399;28;20048;-79
2021/11/15 12:15:59;;;;;;;7.90;3.10;;;8.10;91.70;;;;;;5046567;28;20078;-81
2021/11/15 12:18:33;;;;;;;8.05;2.85;;;8.20;91.70;;;;;;5057337;28;20051;-80
2021/11/15 12:21:09;;;;;;;6.85;2.70;;;8.20;91.70;;;;;;5044336;28;20041;-79
2021/11/15 12:24:06;;;;;;;7.95;2.63;;;8.20;91.60;;;;;;5048664;28;20037;-79
2021/11/15 12:26:43;;;;;;;6.55;3.45;;;8.20;91.60;;;;;;5051927;28;20049;-80
2021/11/15 12:29:28;;;;;;;8.48;3.25;;;8.10;91.60;;;;;;5044819;28;20501;-81
2021/11/15 12:32:04;;;;;;;6.47;3.13;;;8.10;91.60;;;;;;5047836;28;20689;-79
2021/11/15 12:34:34;;;;;;;7.80;3.60;;;8.10;91.70;;;;;;5029044;28;20045;-79
2021/11/15 12:37:04;;;;;;;7.53;2.42;;;8.10;91.70;;;;;;5029428;28;20041;-79
2021/11/15 12:39:43;;;;;;;7.57;2.60;;;8.10;91.70;;;;;;5028846;28;20041;-79
2021/11/15 12:42:23;;;;;;;7.53;3.35;;;8.10;91.70;;;;;;5026958;28;20132;-79
2021/11/15 12:45:26;;;;;;;8.70;3.58;;;8.10;91.70;;;;;;5032844;28;20489;-78
2021/11/15 12:47:53;;;;;;;10.38;3.80;;;8.10;91.60;;;;;;5044969;28;20127;-80
2021/11/15 12:50:25;;;;;;;7.72;3.60;;;8.00;91.60;;;;;;5045282;28;20493;-80
2021/11/15 12:52:57;;;;;;;8.88;3.42;;;8.00;91.60;;;;;;5033279;28;20393;-78
2021/11/15 12:55:28;;;;;;;7.10;3.20;;;8.10;91.60;;;;;;5043270;28;20385;-79
2021/11/15 12:58:01;;;;;;;8.63;3.58;;;8.10;91.60;;;;;;5029069;28;20103;-79
2021/11/15 13:00:37;;;;;;;9.50;4.20;;;8.10;91.60;;;;;;5010129;28;20069;-78
2021/11/15 13:03:08;;;;;;;7.55;3.83;;;8.10;91.60;;;;;;5045378;28;20111;-78
2021/11/15 13:05:41;;;;;;;8.13;3.97;;;8.00;91.60;;;;;;5048002;28;20063;-79
2021/11/15 13:08:09;;;;;;;;;;;8.00;91.60;;;;;;5032709;28;20045;-80
2021/11/15 13:10:42;;;;;;;9.18;4.13;;;8.00;91.60;;;;;;5046830;28;19924;-79